Time;durP1;ratioP1;P1;durP2;ratioP2;P2;SDS_P1;SDS_P2;PMS_P1;PMS_P2;Temp;Humidity;BMP_temperature;BMP_pressure;BME280_temperature;BME280_humidity;BME280_pressure;Samples;Min_cycle;Max_cycle;Signal;HPM_P1;HPM_P2
2021/06/26 00:00:08;;;;;;;28.80;26.60;;;18.00;99.90;;;;;;5012134;28;20445;-69
2021/06/26 00:02:35;;;;;;;28.23;25.83;;;17.90;99.90;;;;;;5011960;28;20454;-66
2021/06/26 00:05:01;;;;;;;28.97;26.37;;;17.80;99.90;;;;;;5011892;28;20470;-65
2021/06/26 00:07:29;;;;;;;28.37;26.37;;;17.70;99.90;;;;;;5011595;28;20458;-66
2021/06/26 00:09:56;;;;;;;28.47;26.33;;;17.60;99.90;;;;;;5011808;28;20442;-65
2021/06/26 00:12:23;;;;;;;29.37;27.13;;;17.50;99.90;;;;;;5011695;28;20932;-66
2021/06/26 00:14:50;;;;;;;27.83;25.60;;;17.50;99.90;;;;;;5011456;28;20472;-65
2021/06/26 00:17:17;;;;;;;28.33;25.63;;;17.50;99.90;;;;;;5011831;28;20449;-66
2021/06/26 00:19:44;;;;;;;29.57;27.17;;;17.50;99.90;;;;;;5011726;28;20449;-65
2021/06/26 00:22:10;;;;;;;31.03;27.30;;;17.40;99.90;;;;;;5011686;28;20464;-65
2021/06/26 00:24:38;;;;;;;28.57;26.00;;;17.30;99.90;;;;;;5011376;28;20481;-66
2021/06/26 00:27:06;;;;;;;30.40;27.57;;;17.20;99.90;;;;;;5011795;28;20450;-66
2021/06/26 00:29:33;;;;;;;27.83;25.57;;;17.20;99.90;;;;;;5011718;28;20481;-66
2021/06/26 00:31:59;;;;;;;29.13;26.83;;;17.10;99.90;;;;;;5011970;28;20445;-66
2021/06/26 00:34:26;;;;;;;30.90;28.30;;;17.10;99.90;;;;;;5015363;28;20684;-66
2021/06/26 00:36:53;;;;;;;33.93;29.93;;;16.90;99.90;;;;;;5015542;28;20452;-65
2021/06/26 00:39:19;;;;;;;29.17;26.57;;;16.80;99.90;;;;;;5015555;28;20446;-66
2021/06/26 00:41:47;;;;;;;30.60;28.00;;;16.80;99.90;;;;;;5015151;28;20441;-66
2021/06/26 00:44:14;;;;;;;28.80;26.10;;;16.70;99.90;;;;;;5015314;28;20466;-66
2021/06/26 00:46:41;;;;;;;29.00;26.20;;;16.60;99.90;;;;;;5015311;28;20468;-65
2021/06/26 00:49:07;;;;;;;29.97;27.47;;;16.60;99.90;;;;;;5015179;28;20853;-65
2021/06/26 00:51:34;;;;;;;29.90;27.47;;;16.60;99.90;;;;;;5015157;28;20449;-65
2021/06/26 00:54:02;;;;;;;28.50;26.00;;;16.60;99.90;;;;;;5014817;28;20450;-65
2021/06/26 00:56:29;;;;;;;28.47;26.30;;;16.50;99.90;;;;;;5015136;28;20799;-66
2021/06/26 00:58:58;;;;;;;29.10;26.50;;;16.50;99.90;;;;;;5015311;28;20479;-65
2021/06/26 01:01:25;;;;;;;29.17;26.87;;;16.50;99.90;;;;;;5014954;28;20826;-66
2021/06/26 01:03:51;;;;;;;30.87;28.40;;;16.40;99.90;;;;;;5014746;28;20446;-65
2021/06/26 01:06:18;;;;;;;29.23;26.77;;;16.40;99.90;;;;;;5015118;28;20449;-66
2021/06/26 01:08:45;;;;;;;29.53;27.13;;;16.40;99.90;;;;;;5014971;28;21009;-66
2021/06/26 01:11:12;;;;;;;28.67;26.17;;;16.40;99.90;;;;;;5014988;28;20442;-65
2021/06/26 01:13:39;;;;;;;30.90;28.03;;;16.40;99.90;;;;;;5014623;28;20462;-66
2021/06/26 01:16:07;;;;;;;29.63;26.90;;;16.30;99.90;;;;;;5014602;28;20465;-66
2021/06/26 01:18:34;;;;;;;27.63;25.33;;;16.30;99.90;;;;;;5014951;28;20445;-65
2021/06/26 01:21:01;;;;;;;28.73;26.33;;;16.20;99.90;;;;;;5014670;28;20473;-66
2021/06/26 01:23:29;;;;;;;29.40;26.80;;;16.20;99.90;;;;;;5014268;28;20458;-65
2021/06/26 01:25:56;;;;;;;30.13;27.67;;;16.20;99.90;;;;;;5014546;28;20467;-65
2021/06/26 01:28:22;;;;;;;31.10;28.50;;;16.20;99.90;;;;;;5014215;28;20509;-65
2021/06/26 01:30:49;;;;;;;30.40;27.90;;;16.10;99.90;;;;;;5014558;28;20442;-66
2021/06/26 01:33:16;;;;;;;29.90;27.10;;;16.10;99.90;;;;;;5014431;28;20461;-66
2021/06/26 01:35:43;;;;;;;29.60;26.73;;;16.10;99.90;;;;;;5014409;28;20481;-65
2021/06/26 01:38:10;;;;;;;29.60;26.90;;;16.10;99.90;;;;;;5014359;28;20978;-65
2021/06/26 01:40:38;;;;;;;30.70;28.07;;;16.00;99.90;;;;;;5014654;28;20445;-65
2021/06/26 01:43:05;;;;;;;31.00;28.30;;;16.00;99.90;;;;;;5013837;28;20465;-65
2021/06/26 01:45:32;;;;;;;30.00;27.37;;;16.00;99.90;;;;;;5013424;28;20469;-66
2021/06/26 01:47:59;;;;;;;31.47;28.90;;;15.90;99.90;;;;;;5014151;28;20461;-66
2021/06/26 01:50:28;;;;;;;30.67;27.77;;;15.90;99.90;;;;;;5014089;28;20837;-66
2021/06/26 01:52:55;;;;;;;29.23;26.50;;;15.90;99.90;;;;;;5013872;28;20468;-68
2021/06/26 01:55:23;;;;;;;29.77;27.27;;;15.80;99.90;;;;;;5013435;28;20898;-66
2021/06/26 01:57:51;;;;;;;30.53;27.63;;;15.80;99.90;;;;;;5012769;28;20805;-66
2021/06/26 02:00:20;;;;;;;28.17;25.77;;;15.80;99.90;;;;;;5013010;28;20482;-65
2021/06/26 02:02:47;;;;;;;29.70;27.10;;;15.80;99.90;;;;;;5012715;28;20445;-66
2021/06/26 02:05:17;;;;;;;29.80;27.30;;;15.90;99.90;;;;;;5012895;28;20473;-66
2021/06/26 02:07:43;;;;;;;30.67;27.87;;;15.90;99.90;;;;;;5012697;28;20473;-65
2021/06/26 02:10:12;;;;;;;29.57;27.37;;;15.80;99.90;;;;;;5013112;28;20485;-66
2021/06/26 02:12:38;;;;;;;30.57;27.70;;;15.90;99.90;;;;;;5013096;28;20442;-65
2021/06/26 02:15:07;;;;;;;30.27;27.80;;;15.80;99.90;;;;;;5012943;28;20473;-66
2021/06/26 02:17:34;;;;;;;33.53;26.97;;;15.80;99.90;;;;;;5012720;28;20445;-66
2021/06/26 02:20:01;;;;;;;27.83;25.53;;;15.80;99.90;;;;;;5011980;28;20442;-66
2021/06/26 02:22:28;;;;;;;30.60;27.80;;;15.80;99.90;;;;;;5012556;28;20450;-66
2021/06/26 02:24:55;;;;;;;29.00;26.63;;;15.80;99.90;;;;;;5012803;28;20466;-66
2021/06/26 02:27:22;;;;;;;33.40;30.20;;;15.80;99.90;;;;;;5012861;28;20454;-66
2021/06/26 02:29:48;;;;;;;31.90;28.97;;;15.90;99.90;;;;;;5012365;28;20482;-66
2021/06/26 02:32:17;;;;;;;30.90;28.40;;;15.90;99.90;;;;;;5012503;28;20449;-66
2021/06/26 02:34:43;;;;;;;31.20;28.50;;;16.00;99.90;;;;;;5012423;28;20462;-65
2021/06/26 02:37:10;;;;;;;31.30;28.70;;;16.00;99.90;;;;;;5012347;28;20442;-66
2021/06/26 02:39:37;;;;;;;32.57;29.50;;;16.00;99.90;;;;;;5012137;28;20446;-66
2021/06/26 02:42:04;;;;;;;32.00;29.30;;;16.00;99.90;;;;;;5012183;28;20459;-66
2021/06/26 02:44:31;;;;;;;32.37;29.47;;;16.10;99.90;;;;;;5012266;28;20477;-66
2021/06/26 02:46:57;;;;;;;27.67;25.47;;;16.20;99.90;;;;;;5012508;28;20446;-66
2021/06/26 02:49:25;;;;;;;31.47;28.73;;;16.20;99.90;;;;;;5011801;28;20477;-65
2021/06/26 02:51:52;;;;;;;31.60;28.60;;;16.20;99.90;;;;;;5011961;28;20453;-66
2021/06/26 02:54:19;;;;;;;32.72;29.83;;;16.10;99.90;;;;;;4975248;28;1061453;-66
2021/06/26 02:56:45;;;;;;;35.13;31.70;;;16.30;99.90;;;;;;5012725;28;20211;-66
2021/06/26 02:59:12;;;;;;;36.10;32.80;;;16.30;99.90;;;;;;5012965;28;20457;-66
2021/06/26 03:01:39;;;;;;;33.70;30.63;;;16.20;99.90;;;;;;5012613;28;20450;-65
2021/06/26 03:04:06;;;;;;;35.73;32.20;;;16.10;99.90;;;;;;5012575;28;20446;-66
2021/06/26 03:06:34;;;;;;;33.13;30.40;;;16.10;99.90;;;;;;5012616;28;20946;-66
2021/06/26 03:09:00;;;;;;;36.27;33.07;;;16.10;99.90;;;;;;5013049;28;20477;-66
2021/06/26 03:11:28;;;;;;;35.87;32.63;;;16.00;99.90;;;;;;5012321;28;20940;-65
2021/06/26 03:13:54;;;;;;;36.90;33.80;;;15.90;99.90;;;;;;5012155;28;20450;-66
2021/06/26 03:16:21;;;;;;;36.07;32.77;;;15.80;99.90;;;;;;5012672;28;20446;-66
2021/06/26 03:18:48;;;;;;;36.77;33.47;;;15.80;99.90;;;;;;5012834;28;20820;-66
2021/06/26 03:21:15;;;;;;;35.77;32.57;;;15.70;99.90;;;;;;5012242;28;20457;-67
2021/06/26 03:23:43;;;;;;;35.60;32.10;;;15.60;99.90;;;;;;5013092;28;20453;-66
2021/06/26 03:26:10;;;;;;;35.40;31.90;;;15.50;99.90;;;;;;5012990;28;20470;-67
2021/06/26 03:28:37;;;;;;;34.90;31.80;;;15.50;99.90;;;;;;5012750;28;20945;-66
2021/06/26 03:31:04;;;;;;;38.83;35.03;;;15.40;99.90;;;;;;5012536;28;20454;-65
2021/06/26 03:33:31;;;;;;;35.63;32.40;;;15.40;99.90;;;;;;5012438;28;20450;-66
2021/06/26 03:35:58;;;;;;;37.93;34.10;;;15.40;99.90;;;;;;5012667;28;20462;-65
2021/06/26 03:38:25;;;;;;;37.90;34.20;;;15.30;99.90;;;;;;5012770;28;20468;-66
2021/06/26 03:40:54;;;;;;;39.27;35.50;;;15.30;99.90;;;;;;5012674;28;20932;-67
2021/06/26 03:43:21;;;;;;;36.10;32.80;;;15.30;99.90;;;;;;5012226;28;20500;-66
2021/06/26 03:45:47;;;;;;;35.17;31.67;;;15.30;99.90;;;;;;5012274;28;20466;-67
2021/06/26 03:48:14;;;;;;;39.33;35.70;;;15.30;99.90;;;;;;5012611;28;20446;-67
2021/06/26 03:50:41;;;;;;;36.40;32.77;;;15.30;99.90;;;;;;5012289;28;20485;-65
2021/06/26 03:53:09;;;;;;;36.57;33.07;;;15.30;99.90;;;;;;5011491;28;20450;-66
2021/06/26 03:55:36;;;;;;;35.37;31.73;;;15.30;99.90;;;;;;5011769;28;20481;-66
2021/06/26 03:58:04;;;;;;;35.57;31.93;;;15.30;99.90;;;;;;5012230;28;20795;-66
2021/06/26 04:00:31;;;;;;;36.37;32.87;;;15.30;99.90;;;;;;5012088;28;20442;-66
2021/06/26 04:02:58;;;;;;;35.47;32.27;;;15.40;99.90;;;;;;5011748;28;20442;-67
2021/06/26 04:05:24;;;;;;;35.43;31.87;;;15.40;99.90;;;;;;4992294;28;21285;-67
2021/06/26 04:07:51;;;;;;;37.83;32.67;;;15.40;99.90;;;;;;4991699;28;20478;-67
2021/06/26 04:10:18;;;;;;;37.97;34.27;;;15.50;99.90;;;;;;4992358;28;20486;-65
2021/06/26 04:12:44;;;;;;;34.87;32.00;;;15.70;99.90;;;;;;4992312;28;20943;-66
2021/06/26 04:15:13;;;;;;;33.97;30.87;;;15.80;99.90;;;;;;4993954;28;20470;-66
2021/06/26 04:17:39;;;;;;;32.37;29.27;;;16.10;99.90;;;;;;5011958;28;20446;-67
2021/06/26 04:20:07;;;;;;;33.17;30.20;;;16.20;99.90;;;;;;5012005;28;20442;-65
2021/06/26 04:22:34;;;;;;;31.00;28.20;;;16.40;99.90;;;;;;5011579;28;20986;-66
2021/06/26 04:25:01;;;;;;;32.13;29.33;;;16.60;99.90;;;;;;5012092;28;20848;-67
2021/06/26 04:27:28;;;;;;;34.60;31.50;;;16.80;99.90;;;;;;5011628;28;20446;-67
2021/06/26 04:29:54;;;;;;;34.97;31.73;;;16.90;99.90;;;;;;5011937;28;20481;-67
2021/06/26 04:32:24;;;;;;;32.30;29.43;;;16.90;99.90;;;;;;5011687;28;20961;-67
2021/06/26 04:34:50;;;;;;;35.63;32.37;;;17.00;99.90;;;;;;5011674;28;20532;-66
2021/06/26 04:37:18;;;;;;;30.90;28.37;;;17.00;99.90;;;;;;5010968;28;20445;-66
2021/06/26 04:39:45;;;;;;;32.20;29.53;;;17.00;99.90;;;;;;5011557;28;20802;-66
2021/06/26 04:42:11;;;;;;;32.73;30.10;;;17.00;99.90;;;;;;5011471;28;20450;-66
2021/06/26 04:44:38;;;;;;;31.87;29.37;;;17.00;99.90;;;;;;5011467;28;20969;-66
2021/06/26 04:47:05;;;;;;;31.90;29.00;;;17.00;99.90;;;;;;5011113;28;20884;-66
2021/06/26 04:49:33;;;;;;;36.20;32.80;;;17.10;99.90;;;;;;5011421;28;20488;-65
2021/06/26 04:52:00;;;;;;;34.83;32.03;;;17.10;99.90;;;;;;5011321;28;20441;-65
2021/06/26 04:54:26;;;;;;;32.67;30.07;;;17.10;99.90;;;;;;5010703;28;20484;-67
2021/06/26 04:56:53;;;;;;;33.87;30.90;;;17.20;99.90;;;;;;5011617;28;20442;-66
2021/06/26 04:59:20;;;;;;;33.77;31.07;;;17.30;99.90;;;;;;5011583;28;20450;-66
2021/06/26 05:01:46;;;;;;;34.73;31.90;;;17.40;99.90;;;;;;5011222;28;20454;-65
2021/06/26 05:04:13;;;;;;;34.50;31.40;;;17.50;99.90;;;;;;5011190;28;20470;-66
2021/06/26 05:06:41;;;;;;;34.40;31.10;;;17.60;99.90;;;;;;5011335;28;20457;-66
2021/06/26 05:09:08;;;;;;;33.43;30.40;;;17.60;99.90;;;;;;5011265;28;21122;-66
2021/06/26 05:11:35;;;;;;;33.83;31.03;;;17.70;99.90;;;;;;5011180;28;20449;-66
2021/06/26 05:14:01;;;;;;;35.47;32.37;;;17.80;99.90;;;;;;5011149;28;20442;-66
2021/06/26 05:16:28;;;;;;;34.70;31.67;;;17.80;99.90;;;;;;5010981;28;20445;-66
2021/06/26 05:18:55;;;;;;;35.47;32.07;;;17.80;99.90;;;;;;5013432;28;20446;-65
2021/06/26 05:21:22;;;;;;;32.80;30.20;;;17.80;99.90;;;;;;5014825;28;20450;-67
2021/06/26 05:23:50;;;;;;;34.43;31.23;;;17.80;99.90;;;;;;5014550;28;20446;-67
2021/06/26 05:26:17;;;;;;;34.57;31.80;;;17.80;99.90;;;;;;5014842;28;20450;-65
2021/06/26 05:28:44;;;;;;;34.20;31.40;;;17.80;99.90;;;;;;5014850;28;20449;-67
2021/06/26 05:31:11;;;;;;;33.70;31.10;;;17.80;99.90;;;;;;5014604;28;21010;-66
2021/06/26 05:33:39;;;;;;;34.83;31.93;;;17.80;99.90;;;;;;5014412;28;20450;-66
2021/06/26 05:36:06;;;;;;;32.80;30.13;;;17.90;99.90;;;;;;5014213;28;20527;-67
2021/06/26 05:38:33;;;;;;;35.60;32.50;;;17.90;99.90;;;;;;5014014;28;20453;-67
2021/06/26 05:41:01;;;;;;;35.93;32.50;;;17.90;99.90;;;;;;5014542;28;20442;-66
2021/06/26 05:43:28;;;;;;;32.63;30.13;;;18.00;99.90;;;;;;5014349;28;20449;-66
2021/06/26 05:45:55;;;;;;;34.30;31.23;;;18.00;99.90;;;;;;5013993;28;20828;-67
2021/06/26 05:48:21;;;;;;;34.80;32.00;;;18.10;99.90;;;;;;5014537;28;20456;-67
2021/06/26 05:50:48;;;;;;;34.63;32.00;;;18.20;99.90;;;;;;5014089;28;20492;-65
2021/06/26 05:53:18;;;;;;;34.87;31.77;;;18.40;99.90;;;;;;5014193;28;20446;-66
2021/06/26 05:55:55;;;;;;;32.07;29.77;;;18.40;99.90;;;;;;5014108;28;21043;-66
2021/06/26 05:58:24;;;;;;;30.53;28.33;;;18.60;99.90;;;;;;5014345;28;20840;-66
2021/06/26 06:00:50;;;;;;;30.87;28.60;;;18.80;99.90;;;;;;5014044;28;20438;-65
2021/06/26 06:03:17;;;;;;;28.17;26.17;;;18.90;99.90;;;;;;5013993;28;20796;-66
2021/06/26 06:05:44;;;;;;;29.70;27.70;;;19.00;99.90;;;;;;5014189;28;20476;-66
2021/06/26 06:08:11;;;;;;;29.70;27.53;;;19.10;99.90;;;;;;5013916;28;20477;-65
2021/06/26 06:10:37;;;;;;;30.60;28.30;;;19.10;99.90;;;;;;5013894;28;20543;-65
2021/06/26 06:13:04;;;;;;;30.20;28.00;;;19.20;99.90;;;;;;5013699;28;20446;-65
2021/06/26 06:15:32;;;;;;;29.73;27.63;;;19.10;99.90;;;;;;5013548;28;20470;-64
2021/06/26 06:17:59;;;;;;;30.37;28.20;;;19.10;99.90;;;;;;5013503;28;20449;-65
2021/06/26 06:20:26;;;;;;;27.60;25.83;;;19.10;99.90;;;;;;5013725;28;20532;-65
2021/06/26 06:22:52;;;;;;;28.27;26.30;;;19.10;99.90;;;;;;5013505;28;20442;-66
2021/06/26 06:25:19;;;;;;;29.00;27.07;;;19.20;99.90;;;;;;5013757;28;20820;-65
2021/06/26 06:27:46;;;;;;;28.30;26.30;;;19.20;99.90;;;;;;5013669;28;20454;-63
2021/06/26 06:30:13;;;;;;;28.50;26.50;;;19.30;99.90;;;;;;5012475;28;20480;-65
2021/06/26 06:32:41;;;;;;;30.37;28.10;;;19.30;99.90;;;;;;5013369;28;20932;-64
2021/06/26 06:35:10;;;;;;;30.23;28.03;;;19.30;99.90;;;;;;5013297;28;20477;-65
2021/06/26 06:37:36;;;;;;;30.37;28.20;;;19.30;99.90;;;;;;5013407;28;20442;-64
2021/06/26 06:40:04;;;;;;;28.90;26.90;;;19.40;99.90;;;;;;5013068;28;20457;-65
2021/06/26 06:42:30;;;;;;;28.33;26.53;;;19.40;99.90;;;;;;5013376;28;20449;-63
2021/06/26 06:44:57;;;;;;;33.17;30.20;;;19.50;99.90;;;;;;5013471;28;20469;-65
2021/06/26 06:47:24;;;;;;;30.63;28.50;;;19.60;99.90;;;;;;5013416;28;20449;-66
2021/06/26 06:49:52;;;;;;;31.00;28.73;;;19.60;99.90;;;;;;5013199;28;20442;-65
2021/06/26 06:52:18;;;;;;;27.87;25.87;;;19.60;99.90;;;;;;5012967;28;20449;-66
2021/06/26 06:54:45;;;;;;;31.90;29.50;;;19.60;99.90;;;;;;5012988;28;20481;-66
2021/06/26 06:57:12;;;;;;;29.83;27.73;;;19.60;99.90;;;;;;5013212;28;20446;-66
2021/06/26 06:59:39;;;;;;;30.80;28.20;;;19.70;99.90;;;;;;5013271;28;20449;-66
2021/06/26 07:02:06;;;;;;;30.03;27.73;;;19.70;99.90;;;;;;5012777;28;20443;-65
2021/06/26 07:04:32;;;;;;;29.37;27.23;;;19.70;99.90;;;;;;5012421;28;20477;-66
2021/06/26 07:07:01;;;;;;;29.40;27.30;;;19.70;99.90;;;;;;5012742;28;20533;-66
2021/06/26 07:09:27;;;;;;;30.57;28.47;;;19.80;99.90;;;;;;5013001;28;20445;-63
2021/06/26 07:11:54;;;;;;;31.57;29.43;;;19.80;99.90;;;;;;5012599;28;20486;-65
2021/06/26 07:14:21;;;;;;;29.67;27.47;;;19.80;99.90;;;;;;5012504;28;20470;-65
2021/06/26 07:16:47;;;;;;;32.23;29.50;;;19.80;99.90;;;;;;5012809;28;20441;-65
2021/06/26 07:19:14;;;;;;;29.30;27.40;;;19.90;99.90;;;;;;5012770;28;20859;-65
2021/06/26 07:21:41;;;;;;;31.57;29.30;;;20.00;99.90;;;;;;5012534;28;20442;-65
2021/06/26 07:24:09;;;;;;;30.87;28.27;;;20.10;99.90;;;;;;5012481;28;20525;-66
2021/06/26 07:26:36;;;;;;;33.77;31.27;;;20.10;99.90;;;;;;5012303;28;20457;-66
2021/06/26 07:29:03;;;;;;;29.73;27.73;;;20.20;99.90;;;;;;5012668;28;20485;-65
2021/06/26 07:31:30;;;;;;;31.30;29.10;;;20.20;99.90;;;;;;5012147;28;20543;-66
2021/06/26 07:33:57;;;;;;;33.10;30.70;;;20.30;99.90;;;;;;5012287;28;20450;-66
2021/06/26 07:36:24;;;;;;;32.03;29.60;;;20.40;99.90;;;;;;5012282;28;20464;-66
2021/06/26 07:38:51;;;;;;;33.27;30.73;;;20.40;99.90;;;;;;5012462;28;20814;-64
2021/06/26 07:41:19;;;;;;;32.00;29.50;;;20.50;99.90;;;;;;5011803;28;20442;-66
2021/06/26 07:43:46;;;;;;;33.57;31.03;;;20.50;99.90;;;;;;5011834;28;20461;-66
2021/06/26 07:46:13;;;;;;;33.33;30.83;;;20.60;99.90;;;;;;5012049;28;21227;-66
2021/06/26 07:48:40;;;;;;;31.77;29.47;;;20.70;99.90;;;;;;5012253;28;20449;-65
2021/06/26 07:51:07;;;;;;;30.87;28.30;;;20.80;99.90;;;;;;5012089;28;20486;-65
2021/06/26 07:53:34;;;;;;;29.40;27.30;;;21.00;99.90;;;;;;5011826;28;20442;-65
2021/06/26 07:56:00;;;;;;;31.63;29.23;;;21.10;99.90;;;;;;5012133;28;20474;-65
2021/06/26 07:58:29;;;;;;;32.07;29.67;;;21.20;99.90;;;;;;5011854;28;20450;-65
2021/06/26 08:00:57;;;;;;;33.47;31.00;;;21.30;99.90;;;;;;5012210;28;20449;-64
2021/06/26 08:03:24;;;;;;;31.37;29.33;;;21.30;99.90;;;;;;5011861;28;20456;-65
2021/06/26 08:05:52;;;;;;;33.13;30.73;;;21.40;99.90;;;;;;5011731;28;20465;-66
2021/06/26 08:08:20;;;;;;;32.10;29.83;;;21.60;99.90;;;;;;5012008;28;20452;-65
2021/06/26 08:10:47;;;;;;;32.27;29.90;;;21.70;99.90;;;;;;5011802;28;20998;-64
2021/06/26 08:13:14;;;;;;;33.13;30.70;;;21.70;99.90;;;;;;5011842;28;20441;-65
2021/06/26 08:15:43;;;;;;;34.40;31.87;;;21.80;99.90;;;;;;5011910;28;20466;-64
2021/06/26 08:18:11;;;;;;;33.87;31.17;;;21.90;99.90;;;;;;5012015;28;20445;-65
2021/06/26 08:20:38;;;;;;;34.77;31.77;;;22.00;99.90;;;;;;5012169;28;20445;-66
2021/06/26 08:23:06;;;;;;;32.70;30.30;;;22.10;99.90;;;;;;5011981;28;20866;-64
2021/06/26 08:25:34;;;;;;;32.27;29.87;;;22.20;99.90;;;;;;5012032;28;20473;-64
2021/06/26 08:28:00;;;;;;;31.70;29.33;;;22.20;99.90;;;;;;5011608;28;20483;-63
2021/06/26 08:30:27;;;;;;;32.17;29.67;;;22.30;99.90;;;;;;5011815;28;20442;-64
2021/06/26 08:32:56;;;;;;;31.40;29.00;;;22.40;99.80;;;;;;5011203;28;20545;-64
2021/06/26 08:35:23;;;;;;;32.93;30.17;;;22.40;98.30;;;;;;5011738;28;21100;-64
2021/06/26 08:37:51;;;;;;;33.67;31.27;;;22.40;97.60;;;;;;5011770;28;20454;-64
2021/06/26 08:40:18;;;;;;;35.13;32.10;;;22.50;97.40;;;;;;5011670;28;20531;-63
2021/06/26 08:42:46;;;;;;;33.07;30.40;;;22.60;97.90;;;;;;5011266;28;20445;-63
2021/06/26 08:45:16;;;;;;;32.07;29.87;;;22.50;98.80;;;;;;5011217;28;20515;-64
2021/06/26 08:47:43;;;;;;;28.93;27.10;;;22.60;98.40;;;;;;5011989;28;20477;-64
2021/06/26 08:50:15;;;;;;;31.40;29.30;;;22.80;96.40;;;;;;4999543;28;20451;-64
2021/06/26 08:52:45;;;;;;;28.20;26.50;;;22.90;95.80;;;;;;4999540;28;20452;-64
2021/06/26 08:55:13;;;;;;;30.10;27.90;;;23.00;95.20;;;;;;5013936;28;20477;-63
2021/06/26 08:57:41;;;;;;;32.73;30.33;;;23.10;95.00;;;;;;5015047;28;20446;-63
2021/06/26 09:00:11;;;;;;;32.63;30.30;;;23.30;96.00;;;;;;5015123;28;20818;-65
2021/06/26 09:02:38;;;;;;;27.97;26.23;;;23.40;95.30;;;;;;5014925;28;20446;-65
2021/06/26 09:05:12;;;;;;;34.80;32.17;;;23.30;92.10;;;;;;5014704;28;20473;-65
2021/06/26 09:07:40;;;;;;;35.23;32.73;;;23.50;94.30;;;;;;4995616;28;20953;-64
2021/06/26 09:10:15;;;;;;;35.70;32.93;;;23.70;94.40;;;;;;4995170;28;20513;-64
2021/06/26 09:12:43;;;;;;;32.83;30.50;;;23.70;93.80;;;;;;4995162;28;20825;-64
2021/06/26 09:15:20;;;;;;;29.70;27.97;;;23.70;93.10;;;;;;4995422;28;20462;-64
2021/06/26 09:17:47;;;;;;;32.60;30.30;;;23.90;92.00;;;;;;4995205;28;20461;-65
2021/06/26 09:20:14;;;;;;;32.60;30.50;;;24.10;91.40;;;;;;4995286;28;20442;-65
2021/06/26 09:22:53;;;;;;;35.10;32.40;;;24.10;91.40;;;;;;5008892;28;20450;-64
2021/06/26 09:25:30;;;;;;;34.20;31.70;;;24.20;89.20;;;;;;5012855;28;20469;-64
2021/06/26 09:27:59;;;;;;;35.50;32.87;;;24.40;87.00;;;;;;5013830;28;20445;-64
2021/06/26 09:30:39;;;;;;;37.53;34.70;;;24.50;88.30;;;;;;5014345;28;20450;-64
2021/06/26 09:33:21;;;;;;;37.60;34.60;;;24.50;89.40;;;;;;5013932;28;20464;-65
2021/06/26 09:36:00;;;;;;;38.10;35.33;;;24.60;88.50;;;;;;5014103;28;20485;-64
2021/06/26 09:38:30;;;;;;;35.93;33.23;;;24.60;90.00;;;;;;5014208;28;20453;-64
2021/06/26 09:40:57;;;;;;;33.30;30.90;;;24.60;87.10;;;;;;5014565;28;20438;-64
2021/06/26 09:43:31;;;;;;;37.20;34.50;;;24.70;88.30;;;;;;5014031;28;20446;-65
2021/06/26 09:46:09;;;;;;;38.40;35.53;;;25.00;86.30;;;;;;5014053;28;20466;-65
2021/06/26 09:48:47;;;;;;;35.93;33.23;;;25.10;83.60;;;;;;5013789;28;20450;-65
2021/06/26 09:51:22;;;;;;;35.27;32.50;;;25.20;83.40;;;;;;5014020;28;20488;-65
2021/06/26 09:53:55;;;;;;;34.30;32.10;;;25.30;86.20;;;;;;5014072;28;20460;-64
2021/06/26 09:56:22;;;;;;;36.03;33.00;;;25.50;81.90;;;;;;5014266;28;20441;-65
2021/06/26 09:58:52;;;;;;;31.03;28.83;;;25.50;79.60;;;;;;5013967;28;20962;-64
2021/06/26 10:01:20;;;;;;;35.57;33.07;;;25.60;80.20;;;;;;5013851;28;20438;-64
2021/06/26 10:03:49;;;;;;;35.30;32.80;;;25.80;76.10;;;;;;5013719;28;21011;-64
2021/06/26 10:06:17;;;;;;;35.13;32.93;;;26.20;74.20;;;;;;5012449;28;20474;-65
2021/06/26 10:08:45;;;;;;;35.53;33.10;;;26.40;71.80;;;;;;5013968;28;20446;-65
2021/06/26 10:11:13;;;;;;;35.63;32.90;;;26.60;68.10;;;;;;5013498;28;20478;-65
2021/06/26 10:13:42;;;;;;;32.97;30.70;;;26.90;67.50;;;;;;5013792;28;20433;-65
2021/06/26 10:16:09;;;;;;;31.83;29.53;;;27.10;66.80;;;;;;5013753;28;20465;-64
2021/06/26 10:18:37;;;;;;;28.73;27.03;;;27.30;61.10;;;;;;5013905;28;21102;-64
2021/06/26 10:21:04;;;;;;;30.43;28.53;;;27.30;57.70;;;;;;5013785;28;20445;-64
2021/06/26 10:23:35;;;;;;;34.50;32.13;;;27.60;59.40;;;;;;5013238;28;20963;-64
2021/06/26 10:26:03;;;;;;;35.83;33.47;;;27.80;60.30;;;;;;5013653;28;20469;-65
2021/06/26 10:28:32;;;;;;;35.27;32.73;;;28.10;57.70;;;;;;5013539;28;20445;-65
2021/06/26 10:31:01;;;;;;;33.57;31.13;;;28.20;57.70;;;;;;5013203;28;20545;-65
2021/06/26 10:33:30;;;;;;;31.63;29.63;;;28.50;58.00;;;;;;5013276;28;20500;-66
2021/06/26 10:36:00;;;;;;;33.00;30.77;;;28.80;56.90;;;;;;5013204;28;20937;-65
2021/06/26 10:38:28;;;;;;;32.80;30.77;;;29.30;55.00;;;;;;5013368;28;20446;-63
2021/06/26 10:40:56;;;;;;;34.13;31.80;;;29.60;53.40;;;;;;5013015;28;20450;-63
2021/06/26 10:43:26;;;;;;;33.47;31.23;;;29.90;51.20;;;;;;5012891;28;20445;-62
2021/06/26 10:46:07;;;;;;;32.83;30.67;;;29.90;50.70;;;;;;5013108;28;20466;-62
2021/06/26 10:48:35;;;;;;;31.47;29.47;;;30.60;48.90;;;;;;5012482;28;20947;-62
2021/06/26 10:51:02;;;;;;;33.93;31.93;;;30.50;47.80;;;;;;5012824;28;20457;-63
2021/06/26 10:53:31;;;;;;;32.63;30.67;;;30.40;47.60;;;;;;5012889;28;20449;-62
2021/06/26 10:56:07;;;;;;;34.80;32.70;;;30.90;47.20;;;;;;5013060;28;20477;-62
2021/06/26 10:58:36;;;;;;;34.80;32.60;;;31.20;46.80;;;;;;5012662;28;20449;-62
2021/06/26 11:01:16;;;;;;;32.97;31.07;;;31.20;45.10;;;;;;5012961;28;20460;-62
2021/06/26 11:03:44;;;;;;;31.57;29.67;;;31.00;44.70;;;;;;5012909;28;20532;-62
2021/06/26 11:06:17;;;;;;;33.40;31.10;;;31.00;46.00;;;;;;5012754;28;20472;-61
2021/06/26 11:08:55;;;;;;;36.17;34.07;;;31.60;45.50;;;;;;5012849;28;20449;-64
2021/06/26 11:11:31;;;;;;;35.27;32.77;;;31.80;45.20;;;;;;5012252;28;20492;-62
2021/06/26 11:14:12;;;;;;;36.33;33.90;;;32.10;45.00;;;;;;5012542;28;20453;-62
2021/06/26 11:16:42;;;;;;;31.97;29.90;;;32.10;44.40;;;;;;5012136;28;20453;-62
2021/06/26 11:19:09;;;;;;;35.10;32.90;;;32.40;44.60;;;;;;5012678;28;20449;-63
2021/06/26 11:21:41;;;;;;;33.63;31.63;;;31.80;45.10;;;;;;5012435;28;20437;-63
2021/06/26 11:24:08;;;;;;;35.60;33.47;;;32.60;43.80;;;;;;5012459;28;20453;-62
2021/06/26 11:26:49;;;;;;;31.27;29.57;;;33.30;41.20;;;;;;5012301;28;20450;-62
2021/06/26 11:29:34;;;;;;;32.53;30.83;;;33.80;40.20;;;;;;5012269;28;20456;-62
2021/06/26 11:32:04;;;;;;;32.90;31.10;;;33.90;38.60;;;;;;5012132;28;20847;-62
2021/06/26 11:34:32;;;;;;;66.00;37.37;;;34.00;37.20;;;;;;5012768;28;20461;-62
2021/06/26 11:37:05;;;;;;;29.33;27.83;;;34.00;38.00;;;;;;5013386;28;20198;-64
2021/06/26 11:39:33;;;;;;;29.93;28.23;;;33.70;37.70;;;;;;5012444;28;20226;-63
2021/06/26 11:42:00;;;;;;;29.48;27.88;;;34.90;37.40;;;;;;5012128;28;20684;-64
2021/06/26 11:44:37;;;;;;;29.55;27.98;;;36.40;34.40;;;;;;5012544;28;20728;-64
2021/06/26 11:47:07;;;;;;;29.60;28.10;;;37.30;32.90;;;;;;5012036;28;20550;-64
2021/06/26 11:49:42;;;;;;;27.10;25.73;;;37.70;32.40;;;;;;5011692;28;20199;-64
2021/06/26 11:52:10;;;;;;;29.33;27.73;;;38.70;31.10;;;;;;5011795;28;20225;-64
2021/06/26 11:54:38;;;;;;;28.30;26.92;;;40.10;30.00;;;;;;5011899;28;20230;-64
2021/06/26 11:57:08;;;;;;;28.27;26.98;;;42.70;27.90;;;;;;5012067;28;20208;-64
2021/06/26 11:59:48;;;;;;;28.85;27.50;;;44.30;26.20;;;;;;5011712;28;20718;-63
2021/06/26 12:02:17;;;;;;;28.92;27.63;;;46.20;24.20;;;;;;5012010;28;20285;-63
2021/06/26 12:04:44;;;;;;;27.88;26.58;;;45.60;23.70;;;;;;5012087;28;20275;-64
2021/06/26 12:07:12;;;;;;;28.75;27.45;;;47.90;23.10;;;;;;5012032;28;20576;-63
2021/06/26 12:09:41;;;;;;;27.20;26.08;;;49.00;22.10;;;;;;5011633;28;20569;-63
2021/06/26 12:12:09;;;;;;;28.00;26.80;;;49.70;21.70;;;;;;5011551;28;20297;-65
2021/06/26 12:14:39;;;;;;;26.80;25.70;;;51.30;20.90;;;;;;5011821;28;20255;-64
2021/06/26 12:17:11;;;;;;;27.88;26.77;;;52.30;20.10;;;;;;5011802;28;20205;-64
2021/06/26 12:19:40;;;;;;;26.05;25.05;;;51.60;19.10;;;;;;5011769;28;20199;-64
2021/06/26 12:22:08;;;;;;;26.95;25.67;;;52.70;19.50;;;;;;5011551;28;20977;-64
2021/06/26 12:24:37;;;;;;;27.75;26.30;;;53.20;18.60;;;;;;5011713;28;20234;-65
2021/06/26 12:27:06;;;;;;;26.77;25.67;;;52.60;18.70;;;;;;5011838;28;20206;-64
2021/06/26 12:29:33;;;;;;;27.95;26.85;;;53.70;18.10;;;;;;5014813;28;20198;-65